sensor_id;sensor_type;location;lat;lon;timestamp;temperature;humidity
40516;DHT22;26216;53.724;9.898;2023-03-14T00:02:26;11.80;99.90
40516;DHT22;26216;53.724;9.898;2023-03-14T00:04:54;11.80;99.90
40516;DHT22;26216;53.724;9.898;2023-03-14T00:07:21;11.70;99.90
40516;DHT22;26216;53.724;9.898;2023-03-14T00:09:50;11.80;99.90
40516;DHT22;26216;53.724;9.898;2023-03-14T00:12:16;11.80;99.90
40516;DHT22;26216;53.724;9.898;2023-03-14T00:14:41;11.70;99.90
40516;DHT22;26216;53.724;9.898;2023-03-14T00:17:09;11.70;99.90
40516;DHT22;26216;53.724;9.898;2023-03-14T00:19:35;11.70;99.90
40516;DHT22;26216;53.724;9.898;2023-03-14T00:22:00;11.70;99.90
40516;DHT22;26216;53.724;9.898;2023-03-14T00:24:26;11.70;99.90
40516;DHT22;26216;53.724;9.898;2023-03-14T00:26:52;11.70;99.90
40516;DHT22;26216;53.724;9.898;2023-03-14T00:29:18;11.70;99.90
40516;DHT22;26216;53.724;9.898;2023-03-14T00:31:44;11.70;99.90
40516;DHT22;26216;53.724;9.898;2023-03-14T00:34:09;11.70;99.90
40516;DHT22;26216;53.724;9.898;2023-03-14T00:36:35;11.70;99.90
40516;DHT22;26216;53.724;9.898;2023-03-14T00:39:01;11.70;99.90
40516;DHT22;26216;53.724;9.898;2023-03-14T00:41:27;11.70;99.90
40516;DHT22;26216;53.724;9.898;2023-03-14T00:43:53;11.70;99.90
40516;DHT22;26216;53.724;9.898;2023-03-14T00:46:18;11.80;99.90
40516;DHT22;26216;53.724;9.898;2023-03-14T00:48:45;11.70;99.90
40516;DHT22;26216;53.724;9.898;2023-03-14T00:51:12;11.70;99.90
40516;DHT22;26216;53.724;9.898;2023-03-14T00:53:40;11.80;99.90
40516;DHT22;26216;53.724;9.898;2023-03-14T00:56:09;11.80;99.90
40516;DHT22;26216;53.724;9.898;2023-03-14T00:58:35;11.80;99.90
40516;DHT22;26216;53.724;9.898;2023-03-14T01:01:09;11.80;99.90
40516;DHT22;26216;53.724;9.898;2023-03-14T01:03:36;11.80;99.90
40516;DHT22;26216;53.724;9.898;2023-03-14T01:06:16;11.80;99.90
40516;DHT22;26216;53.724;9.898;2023-03-14T01:08:43;11.80;99.90
40516;DHT22;26216;53.724;9.898;2023-03-14T01:11:11;11.90;99.90
40516;DHT22;26216;53.724;9.898;2023-03-14T01:13:38;11.90;99.90
40516;DHT22;26216;53.724;9.898;2023-03-14T01:16:06;11.80;99.90
40516;DHT22;26216;53.724;9.898;2023-03-14T01:18:33;11.90;99.90
40516;DHT22;26216;53.724;9.898;2023-03-14T01:21:01;11.90;99.90
40516;DHT22;26216;53.724;9.898;2023-03-14T01:23:27;11.90;99.90
40516;DHT22;26216;53.724;9.898;2023-03-14T01:25:53;11.90;99.90
40516;DHT22;26216;53.724;9.898;2023-03-14T01:28:19;12.00;99.90
40516;DHT22;26216;53.724;9.898;2023-03-14T01:30:45;11.90;99.90
40516;DHT22;26216;53.724;9.898;2023-03-14T01:33:10;12.00;99.90
40516;DHT22;26216;53.724;9.898;2023-03-14T01:35:38;12.00;99.90
40516;DHT22;26216;53.724;9.898;2023-03-14T01:38:04;12.10;99.90
40516;DHT22;26216;53.724;9.898;2023-03-14T01:40:30;12.10;99.90
40516;DHT22;26216;53.724;9.898;2023-03-14T01:42:56;12.10;99.90
40516;DHT22;26216;53.724;9.898;2023-03-14T01:48:28;12.20;99.90
40516;DHT22;26216;53.724;9.898;2023-03-14T01:50:57;12.20;99.90
40516;DHT22;26216;53.724;9.898;2023-03-14T01:53:24;12.20;99.90
40516;DHT22;26216;53.724;9.898;2023-03-14T01:55:50;12.30;99.90
40516;DHT22;26216;53.724;9.898;2023-03-14T01:58:17;12.30;99.90
40516;DHT22;26216;53.724;9.898;2023-03-14T02:00:45;12.30;99.90
40516;DHT22;26216;53.724;9.898;2023-03-14T02:03:15;12.30;99.90
40516;DHT22;26216;53.724;9.898;2023-03-14T02:05:43;12.30;99.90
40516;DHT22;26216;53.724;9.898;2023-03-14T02:08:14;12.40;99.90
40516;DHT22;26216;53.724;9.898;2023-03-14T02:10:44;12.40;99.90
40516;DHT22;26216;53.724;9.898;2023-03-14T02:13:10;12.40;99.90
40516;DHT22;26216;53.724;9.898;2023-03-14T02:15:38;12.30;99.90
40516;DHT22;26216;53.724;9.898;2023-03-14T02:18:04;12.40;99.90
40516;DHT22;26216;53.724;9.898;2023-03-14T02:23:53;12.40;99.90
40516;DHT22;26216;53.724;9.898;2023-03-14T02:26:36;12.30;99.90
40516;DHT22;26216;53.724;9.898;2023-03-14T02:29:04;12.40;99.90
40516;DHT22;26216;53.724;9.898;2023-03-14T02:31:29;12.40;99.90
40516;DHT22;26216;53.724;9.898;2023-03-14T02:33:56;12.40;99.90
40516;DHT22;26216;53.724;9.898;2023-03-14T02:36:23;12.30;99.90
40516;DHT22;26216;53.724;9.898;2023-03-14T02:39:06;12.30;99.90
40516;DHT22;26216;53.724;9.898;2023-03-14T02:41:34;12.30;99.90
40516;DHT22;26216;53.724;9.898;2023-03-14T02:44:00;12.30;99.90
40516;DHT22;26216;53.724;9.898;2023-03-14T02:46:26;12.30;99.90
40516;DHT22;26216;53.724;9.898;2023-03-14T02:49:02;12.30;99.90
40516;DHT22;26216;53.724;9.898;2023-03-14T02:51:29;12.30;99.90
40516;DHT22;26216;53.724;9.898;2023-03-14T02:53:55;12.30;99.90
40516;DHT22;26216;53.724;9.898;2023-03-14T02:56:21;12.30;99.90
40516;DHT22;26216;53.724;9.898;2023-03-14T02:58:46;12.30;99.90
40516;DHT22;26216;53.724;9.898;2023-03-14T03:01:12;12.30;99.90
40516;DHT22;26216;53.724;9.898;2023-03-14T03:03:38;12.30;99.90
40516;DHT22;26216;53.724;9.898;2023-03-14T03:06:04;12.40;99.90
40516;DHT22;26216;53.724;9.898;2023-03-14T03:08:31;12.30;99.90
40516;DHT22;26216;53.724;9.898;2023-03-14T03:10:57;12.40;99.90
40516;DHT22;26216;53.724;9.898;2023-03-14T03:13:23;12.40;99.90
40516;DHT22;26216;53.724;9.898;2023-03-14T03:15:49;12.40;99.90
40516;DHT22;26216;53.724;9.898;2023-03-14T03:18:15;12.40;99.90
40516;DHT22;26216;53.724;9.898;2023-03-14T03:20:41;12.30;99.90
40516;DHT22;26216;53.724;9.898;2023-03-14T03:23:06;12.40;99.90
40516;DHT22;26216;53.724;9.898;2023-03-14T03:25:32;12.40;99.90
40516;DHT22;26216;53.724;9.898;2023-03-14T03:27:58;12.40;99.90
40516;DHT22;26216;53.724;9.898;2023-03-14T03:30:24;12.40;99.90
40516;DHT22;26216;53.724;9.898;2023-03-14T03:32:50;12.40;99.90
40516;DHT22;26216;53.724;9.898;2023-03-14T03:35:16;12.40;99.90
40516;DHT22;26216;53.724;9.898;2023-03-14T03:37:42;12.50;99.90
40516;DHT22;26216;53.724;9.898;2023-03-14T03:40:08;12.50;99.90
40516;DHT22;26216;53.724;9.898;2023-03-14T03:42:35;12.50;99.90
40516;DHT22;26216;53.724;9.898;2023-03-14T03:45:01;12.50;99.90
40516;DHT22;26216;53.724;9.898;2023-03-14T03:47:27;12.50;99.90
40516;DHT22;26216;53.724;9.898;2023-03-14T03:49:53;12.50;99.90
40516;DHT22;26216;53.724;9.898;2023-03-14T03:52:19;12.50;99.90
40516;DHT22;26216;53.724;9.898;2023-03-14T03:54:46;12.60;99.90
40516;DHT22;26216;53.724;9.898;2023-03-14T03:57:11;12.50;99.90
40516;DHT22;26216;53.724;9.898;2023-03-14T03:59:37;12.50;99.90
40516;DHT22;26216;53.724;9.898;2023-03-14T04:02:05;12.50;99.90
40516;DHT22;26216;53.724;9.898;2023-03-14T04:04:31;12.60;99.90
40516;DHT22;26216;53.724;9.898;2023-03-14T04:06:57;12.50;99.90
40516;DHT22;26216;53.724;9.898;2023-03-14T04:09:23;12.60;99.90
40516;DHT22;26216;53.724;9.898;2023-03-14T04:11:49;12.60;99.90
40516;DHT22;26216;53.724;9.898;2023-03-14T04:14:14;12.50;99.90
40516;DHT22;26216;53.724;9.898;2023-03-14T04:16:40;12.60;99.90
40516;DHT22;26216;53.724;9.898;2023-03-14T04:19:06;12.60;99.90
40516;DHT22;26216;53.724;9.898;2023-03-14T04:21:32;12.60;99.90
40516;DHT22;26216;53.724;9.898;2023-03-14T04:23:58;12.60;99.90
40516;DHT22;26216;53.724;9.898;2023-03-14T04:26:24;12.60;99.90
40516;DHT22;26216;53.724;9.898;2023-03-14T04:28:49;12.60;99.90
40516;DHT22;26216;53.724;9.898;2023-03-14T04:31:18;12.60;99.90
40516;DHT22;26216;53.724;9.898;2023-03-14T04:33:44;12.60;99.90
40516;DHT22;26216;53.724;9.898;2023-03-14T04:36:10;12.60;99.90
40516;DHT22;26216;53.724;9.898;2023-03-14T04:38:36;12.60;99.90
40516;DHT22;26216;53.724;9.898;2023-03-14T04:41:03;12.60;99.90
40516;DHT22;26216;53.724;9.898;2023-03-14T04:43:29;12.60;99.90
40516;DHT22;26216;53.724;9.898;2023-03-14T04:45:55;12.60;99.90
40516;DHT22;26216;53.724;9.898;2023-03-14T04:48:22;12.50;99.90
40516;DHT22;26216;53.724;9.898;2023-03-14T04:50:48;12.50;99.90
40516;DHT22;26216;53.724;9.898;2023-03-14T04:53:16;12.50;99.90
40516;DHT22;26216;53.724;9.898;2023-03-14T04:55:42;12.50;99.90
40516;DHT22;26216;53.724;9.898;2023-03-14T04:58:08;12.50;99.90
40516;DHT22;26216;53.724;9.898;2023-03-14T05:00:34;12.40;99.90
40516;DHT22;26216;53.724;9.898;2023-03-14T05:02:59;12.40;99.90
40516;DHT22;26216;53.724;9.898;2023-03-14T05:05:25;12.30;99.90
40516;DHT22;26216;53.724;9.898;2023-03-14T05:07:51;12.30;99.90
40516;DHT22;26216;53.724;9.898;2023-03-14T05:10:17;12.20;99.90
40516;DHT22;26216;53.724;9.898;2023-03-14T05:12:43;12.20;99.90
40516;DHT22;26216;53.724;9.898;2023-03-14T05:15:09;12.20;99.90
40516;DHT22;26216;53.724;9.898;2023-03-14T05:17:35;12.10;99.90
40516;DHT22;26216;53.724;9.898;2023-03-14T05:20:01;12.10;99.90
40516;DHT22;26216;53.724;9.898;2023-03-14T05:22:33;12.10;99.90
40516;DHT22;26216;53.724;9.898;2023-03-14T05:24:58;12.10;99.90
40516;DHT22;26216;53.724;9.898;2023-03-14T05:27:24;12.00;99.90
40516;DHT22;26216;53.724;9.898;2023-03-14T05:29:50;12.00;99.90
40516;DHT22;26216;53.724;9.898;2023-03-14T05:32:16;12.00;99.90
40516;DHT22;26216;53.724;9.898;2023-03-14T05:34:41;12.00;99.90
40516;DHT22;26216;53.724;9.898;2023-03-14T05:37:07;12.00;99.90
40516;DHT22;26216;53.724;9.898;2023-03-14T05:39:33;11.90;99.90
40516;DHT22;26216;53.724;9.898;2023-03-14T05:41:59;11.90;99.90
40516;DHT22;26216;53.724;9.898;2023-03-14T05:44:25;11.90;99.90
40516;DHT22;26216;53.724;9.898;2023-03-14T05:46:51;11.90;99.90
40516;DHT22;26216;53.724;9.898;2023-03-14T05:49:17;11.80;99.90
40516;DHT22;26216;53.724;9.898;2023-03-14T05:51:43;11.80;99.90
40516;DHT22;26216;53.724;9.898;2023-03-14T05:54:08;11.80;99.90
40516;DHT22;26216;53.724;9.898;2023-03-14T05:56:34;11.80;99.90
40516;DHT22;26216;53.724;9.898;2023-03-14T05:59:00;11.80;99.90
40516;DHT22;26216;53.724;9.898;2023-03-14T06:01:29;11.70;99.90
40516;DHT22;26216;53.724;9.898;2023-03-14T06:03:55;11.70;99.90
40516;DHT22;26216;53.724;9.898;2023-03-14T06:06:21;11.70;99.90
40516;DHT22;26216;53.724;9.898;2023-03-14T06:08:46;11.70;99.90
40516;DHT22;26216;53.724;9.898;2023-03-14T06:11:13;11.70;99.90
40516;DHT22;26216;53.724;9.898;2023-03-14T06:13:38;11.60;99.90
40516;DHT22;26216;53.724;9.898;2023-03-14T06:16:05;11.70;99.90
40516;DHT22;26216;53.724;9.898;2023-03-14T06:18:31;11.70;99.90
40516;DHT22;26216;53.724;9.898;2023-03-14T06:20:57;11.70;99.90
40516;DHT22;26216;53.724;9.898;2023-03-14T06:23:23;11.60;99.90
40516;DHT22;26216;53.724;9.898;2023-03-14T06:25:51;11.70;99.90
40516;DHT22;26216;53.724;9.898;2023-03-14T06:28:17;11.60;99.90
40516;DHT22;26216;53.724;9.898;2023-03-14T06:30:43;11.60;99.90
40516;DHT22;26216;53.724;9.898;2023-03-14T06:33:08;11.60;99.90
40516;DHT22;26216;53.724;9.898;2023-03-14T06:35:34;11.60;99.90
40516;DHT22;26216;53.724;9.898;2023-03-14T06:38:00;11.60;99.90
40516;DHT22;26216;53.724;9.898;2023-03-14T06:40:26;11.60;99.90
40516;DHT22;26216;53.724;9.898;2023-03-14T06:42:52;11.60;99.90
40516;DHT22;26216;53.724;9.898;2023-03-14T06:45:19;11.60;99.90
40516;DHT22;26216;53.724;9.898;2023-03-14T06:47:45;11.60;99.90
40516;DHT22;26216;53.724;9.898;2023-03-14T06:50:11;11.60;99.90
40516;DHT22;26216;53.724;9.898;2023-03-14T06:52:37;11.60;99.90
40516;DHT22;26216;53.724;9.898;2023-03-14T06:55:07;11.60;99.90
40516;DHT22;26216;53.724;9.898;2023-03-14T06:57:33;11.70;99.90
40516;DHT22;26216;53.724;9.898;2023-03-14T06:59:59;11.70;99.90
40516;DHT22;26216;53.724;9.898;2023-03-14T07:02:25;11.70;99.90
40516;DHT22;26216;53.724;9.898;2023-03-14T07:04:51;11.80;99.90
40516;DHT22;26216;53.724;9.898;2023-03-14T07:07:17;11.80;99.90
40516;DHT22;26216;53.724;9.898;2023-03-14T07:09:43;11.80;99.90
40516;DHT22;26216;53.724;9.898;2023-03-14T07:12:08;11.90;99.90
40516;DHT22;26216;53.724;9.898;2023-03-14T07:14:34;11.90;99.90
40516;DHT22;26216;53.724;9.898;2023-03-14T07:17:00;11.90;99.90
40516;DHT22;26216;53.724;9.898;2023-03-14T07:19:26;11.90;99.90
40516;DHT22;26216;53.724;9.898;2023-03-14T07:21:52;12.00;99.90
40516;DHT22;26216;53.724;9.898;2023-03-14T07:24:18;12.00;99.90
40516;DHT22;26216;53.724;9.898;2023-03-14T07:26:44;12.00;99.90
40516;DHT22;26216;53.724;9.898;2023-03-14T07:29:10;12.00;99.90
40516;DHT22;26216;53.724;9.898;2023-03-14T07:31:35;12.00;99.90
40516;DHT22;26216;53.724;9.898;2023-03-14T07:34:01;12.10;99.90
40516;DHT22;26216;53.724;9.898;2023-03-14T07:36:27;12.10;99.90
40516;DHT22;26216;53.724;9.898;2023-03-14T07:38:53;12.10;99.90
40516;DHT22;26216;53.724;9.898;2023-03-14T07:41:19;12.10;99.90
40516;DHT22;26216;53.724;9.898;2023-03-14T07:43:46;12.10;99.90
40516;DHT22;26216;53.724;9.898;2023-03-14T07:46:12;12.10;99.90
40516;DHT22;26216;53.724;9.898;2023-03-14T07:48:38;12.20;99.90
40516;DHT22;26216;53.724;9.898;2023-03-14T07:51:04;12.20;99.90
40516;DHT22;26216;53.724;9.898;2023-03-14T07:53:30;12.20;99.90
40516;DHT22;26216;53.724;9.898;2023-03-14T07:55:55;12.20;99.90
40516;DHT22;26216;53.724;9.898;2023-03-14T07:58:22;12.20;99.90
40516;DHT22;26216;53.724;9.898;2023-03-14T08:00:48;12.30;99.90
40516;DHT22;26216;53.724;9.898;2023-03-14T08:03:14;12.30;99.90
40516;DHT22;26216;53.724;9.898;2023-03-14T08:05:40;12.30;99.90
40516;DHT22;26216;53.724;9.898;2023-03-14T08:08:07;12.30;99.90
40516;DHT22;26216;53.724;9.898;2023-03-14T08:10:33;12.40;99.90
40516;DHT22;26216;53.724;9.898;2023-03-14T08:13:00;12.40;99.90
40516;DHT22;26216;53.724;9.898;2023-03-14T08:15:28;12.50;99.90
40516;DHT22;26216;53.724;9.898;2023-03-14T08:17:54;12.60;99.90
40516;DHT22;26216;53.724;9.898;2023-03-14T08:20:22;12.50;99.90
40516;DHT22;26216;53.724;9.898;2023-03-14T08:22:48;12.60;99.90
40516;DHT22;26216;53.724;9.898;2023-03-14T08:25:14;12.70;99.90
40516;DHT22;26216;53.724;9.898;2023-03-14T08:27:41;12.70;99.90
40516;DHT22;26216;53.724;9.898;2023-03-14T08:30:13;12.70;99.90
40516;DHT22;26216;53.724;9.898;2023-03-14T08:32:39;12.80;99.90
40516;DHT22;26216;53.724;9.898;2023-03-14T08:35:06;12.80;99.90
40516;DHT22;26216;53.724;9.898;2023-03-14T08:37:33;12.80;99.90
40516;DHT22;26216;53.724;9.898;2023-03-14T08:39:59;12.80;99.90
40516;DHT22;26216;53.724;9.898;2023-03-14T08:42:25;12.90;99.90
40516;DHT22;26216;53.724;9.898;2023-03-14T08:44:51;12.90;99.90
40516;DHT22;26216;53.724;9.898;2023-03-14T08:47:18;12.90;99.90
40516;DHT22;26216;53.724;9.898;2023-03-14T08:49:44;12.90;99.90
40516;DHT22;26216;53.724;9.898;2023-03-14T08:52:09;12.90;99.90
40516;DHT22;26216;53.724;9.898;2023-03-14T08:54:35;12.90;99.90
40516;DHT22;26216;53.724;9.898;2023-03-14T08:57:01;12.90;99.90
40516;DHT22;26216;53.724;9.898;2023-03-14T08:59:27;13.00;99.90
40516;DHT22;26216;53.724;9.898;2023-03-14T09:01:53;13.00;99.90
40516;DHT22;26216;53.724;9.898;2023-03-14T09:04:20;13.00;99.90
40516;DHT22;26216;53.724;9.898;2023-03-14T09:06:46;12.90;99.90
40516;DHT22;26216;53.724;9.898;2023-03-14T09:09:12;13.00;99.90
40516;DHT22;26216;53.724;9.898;2023-03-14T09:11:39;13.00;99.90
40516;DHT22;26216;53.724;9.898;2023-03-14T09:14:06;13.00;99.90
40516;DHT22;26216;53.724;9.898;2023-03-14T09:16:33;13.00;99.90
40516;DHT22;26216;53.724;9.898;2023-03-14T09:18:59;13.00;99.90
40516;DHT22;26216;53.724;9.898;2023-03-14T09:21:26;13.00;99.90
40516;DHT22;26216;53.724;9.898;2023-03-14T09:23:53;13.00;99.90
40516;DHT22;26216;53.724;9.898;2023-03-14T09:26:19;13.00;99.90
40516;DHT22;26216;53.724;9.898;2023-03-14T09:28:45;13.00;99.90
40516;DHT22;26216;53.724;9.898;2023-03-14T09:31:12;12.90;99.90
40516;DHT22;26216;53.724;9.898;2023-03-14T09:33:38;12.90;99.90
40516;DHT22;26216;53.724;9.898;2023-03-14T09:36:04;12.90;99.90
40516;DHT22;26216;53.724;9.898;2023-03-14T09:38:31;12.90;99.90
40516;DHT22;26216;53.724;9.898;2023-03-14T09:41:01;12.60;99.90
40516;DHT22;26216;53.724;9.898;2023-03-14T09:43:31;12.40;99.90
40516;DHT22;26216;53.724;9.898;2023-03-14T09:46:01;12.20;99.90
40516;DHT22;26216;53.724;9.898;2023-03-14T09:48:31;12.00;99.90
40516;DHT22;26216;53.724;9.898;2023-03-14T09:51:01;11.80;99.90
40516;DHT22;26216;53.724;9.898;2023-03-14T09:53:37;11.60;99.90
40516;DHT22;26216;53.724;9.898;2023-03-14T09:56:11;11.50;99.90
40516;DHT22;26216;53.724;9.898;2023-03-14T09:58:40;11.20;99.90
40516;DHT22;26216;53.724;9.898;2023-03-14T10:01:11;11.00;99.90
40516;DHT22;26216;53.724;9.898;2023-03-14T10:03:40;10.70;99.90
40516;DHT22;26216;53.724;9.898;2023-03-14T10:06:12;10.40;99.90
40516;DHT22;26216;53.724;9.898;2023-03-14T10:08:43;10.10;99.90
40516;DHT22;26216;53.724;9.898;2023-03-14T10:11:17;9.80;99.90
40516;DHT22;26216;53.724;9.898;2023-03-14T10:14:07;9.60;99.90
40516;DHT22;26216;53.724;9.898;2023-03-14T10:16:41;9.20;99.90
40516;DHT22;26216;53.724;9.898;2023-03-14T10:19:11;8.90;99.90
40516;DHT22;26216;53.724;9.898;2023-03-14T10:21:40;8.80;99.90
40516;DHT22;26216;53.724;9.898;2023-03-14T10:24:26;8.50;99.90
40516;DHT22;26216;53.724;9.898;2023-03-14T10:26:54;8.30;99.90
40516;DHT22;26216;53.724;9.898;2023-03-14T10:29:20;8.00;99.90
40516;DHT22;26216;53.724;9.898;2023-03-14T10:32:01;7.90;99.90
40516;DHT22;26216;53.724;9.898;2023-03-14T10:34:35;7.80;99.90
40516;DHT22;26216;53.724;9.898;2023-03-14T10:37:22;7.70;99.90
40516;DHT22;26216;53.724;9.898;2023-03-14T10:39:49;7.70;99.90
40516;DHT22;26216;53.724;9.898;2023-03-14T10:42:29;7.70;99.90
40516;DHT22;26216;53.724;9.898;2023-03-14T10:47:50;7.60;99.90
40516;DHT22;26216;53.724;9.898;2023-03-14T10:52:53;7.50;99.90
40516;DHT22;26216;53.724;9.898;2023-03-14T10:55:19;7.30;99.90
40516;DHT22;26216;53.724;9.898;2023-03-14T10:57:44;7.10;99.90
40516;DHT22;26216;53.724;9.898;2023-03-14T11:00:19;7.00;99.90
40516;DHT22;26216;53.724;9.898;2023-03-14T11:02:54;6.90;99.90
40516;DHT22;26216;53.724;9.898;2023-03-14T11:05:34;6.90;99.90
40516;DHT22;26216;53.724;9.898;2023-03-14T11:08:11;6.80;99.90
40516;DHT22;26216;53.724;9.898;2023-03-14T11:10:40;6.80;99.90
40516;DHT22;26216;53.724;9.898;2023-03-14T11:13:39;6.80;99.90
40516;DHT22;26216;53.724;9.898;2023-03-14T11:16:17;6.80;99.90
40516;DHT22;26216;53.724;9.898;2023-03-14T11:24:27;6.70;99.90
40516;DHT22;26216;53.724;9.898;2023-03-14T11:32:46;6.80;99.90
40516;DHT22;26216;53.724;9.898;2023-03-14T11:35:26;6.90;99.90
40516;DHT22;26216;53.724;9.898;2023-03-14T11:40:51;6.90;99.90
40516;DHT22;26216;53.724;9.898;2023-03-14T11:45:56;7.00;99.90
40516;DHT22;26216;53.724;9.898;2023-03-14T11:51:15;7.20;99.90
40516;DHT22;26216;53.724;9.898;2023-03-14T11:59:05;7.40;99.90
40516;DHT22;26216;53.724;9.898;2023-03-14T12:04:31;7.50;99.90
40516;DHT22;26216;53.724;9.898;2023-03-14T12:07:03;7.50;99.90
40516;DHT22;26216;53.724;9.898;2023-03-14T12:09:33;7.60;99.90
40516;DHT22;26216;53.724;9.898;2023-03-14T12:12:02;7.70;99.90
40516;DHT22;26216;53.724;9.898;2023-03-14T12:14:36;7.70;99.90
40516;DHT22;26216;53.724;9.898;2023-03-14T12:17:25;7.70;99.40
40516;DHT22;26216;53.724;9.898;2023-03-14T12:22:49;7.70;99.30
40516;DHT22;26216;53.724;9.898;2023-03-14T12:25:28;7.60;99.10
40516;DHT22;26216;53.724;9.898;2023-03-14T12:30:32;7.50;99.90
40516;DHT22;26216;53.724;9.898;2023-03-14T12:35:50;7.40;99.90
40516;DHT22;26216;53.724;9.898;2023-03-14T12:38:39;7.40;99.90
40516;DHT22;26216;53.724;9.898;2023-03-14T12:43:35;7.30;99.90
40516;DHT22;26216;53.724;9.898;2023-03-14T12:48:38;7.40;99.90
40516;DHT22;26216;53.724;9.898;2023-03-14T12:51:13;7.40;99.90
40516;DHT22;26216;53.724;9.898;2023-03-14T12:59:47;7.50;99.90
40516;DHT22;26216;53.724;9.898;2023-03-14T13:02:20;7.60;99.90
40516;DHT22;26216;53.724;9.898;2023-03-14T13:05:04;7.60;98.50
40516;DHT22;26216;53.724;9.898;2023-03-14T13:10:24;7.60;96.90
40516;DHT22;26216;53.724;9.898;2023-03-14T13:12:57;7.60;95.90
40516;DHT22;26216;53.724;9.898;2023-03-14T13:15:39;7.60;95.60
40516;DHT22;26216;53.724;9.898;2023-03-14T13:18:13;7.70;94.00
40516;DHT22;26216;53.724;9.898;2023-03-14T13:20:52;7.70;93.70
40516;DHT22;26216;53.724;9.898;2023-03-14T13:23:31;7.80;93.50
40516;DHT22;26216;53.724;9.898;2023-03-14T13:25:58;7.80;91.80
40516;DHT22;26216;53.724;9.898;2023-03-14T13:28:26;7.80;88.40
40516;DHT22;26216;53.724;9.898;2023-03-14T13:31:04;7.80;85.00
40516;DHT22;26216;53.724;9.898;2023-03-14T13:33:33;7.80;87.50
40516;DHT22;26216;53.724;9.898;2023-03-14T13:36:02;7.80;90.10
40516;DHT22;26216;53.724;9.898;2023-03-14T13:38:31;7.70;89.20
40516;DHT22;26216;53.724;9.898;2023-03-14T13:41:05;7.70;89.80
40516;DHT22;26216;53.724;9.898;2023-03-14T13:43:43;7.70;87.30
40516;DHT22;26216;53.724;9.898;2023-03-14T13:46:21;7.70;87.40
40516;DHT22;26216;53.724;9.898;2023-03-14T13:49:01;7.80;88.50
40516;DHT22;26216;53.724;9.898;2023-03-14T13:51:28;7.80;90.00
40516;DHT22;26216;53.724;9.898;2023-03-14T13:53:57;7.90;90.10
40516;DHT22;26216;53.724;9.898;2023-03-14T13:56:28;7.90;88.90
40516;DHT22;26216;53.724;9.898;2023-03-14T13:58:55;7.80;88.10
40516;DHT22;26216;53.724;9.898;2023-03-14T14:01:29;7.80;85.90
40516;DHT22;26216;53.724;9.898;2023-03-14T14:03:59;7.70;86.90
40516;DHT22;26216;53.724;9.898;2023-03-14T14:06:45;7.70;88.40
40516;DHT22;26216;53.724;9.898;2023-03-14T14:09:16;7.70;86.60
40516;DHT22;26216;53.724;9.898;2023-03-14T14:12:01;7.70;87.30
40516;DHT22;26216;53.724;9.898;2023-03-14T14:14:53;7.70;85.80
40516;DHT22;26216;53.724;9.898;2023-03-14T14:17:25;7.60;87.30
40516;DHT22;26216;53.724;9.898;2023-03-14T14:19:52;7.60;87.80
40516;DHT22;26216;53.724;9.898;2023-03-14T14:22:20;7.50;86.60
40516;DHT22;26216;53.724;9.898;2023-03-14T14:24:46;7.50;87.80
40516;DHT22;26216;53.724;9.898;2023-03-14T14:27:27;7.50;88.70
40516;DHT22;26216;53.724;9.898;2023-03-14T14:30:00;7.50;90.20
40516;DHT22;26216;53.724;9.898;2023-03-14T14:32:33;7.50;89.30
40516;DHT22;26216;53.724;9.898;2023-03-14T14:35:00;7.50;88.30
40516;DHT22;26216;53.724;9.898;2023-03-14T14:37:50;7.50;87.80
40516;DHT22;26216;53.724;9.898;2023-03-14T14:40:20;7.50;85.60
40516;DHT22;26216;53.724;9.898;2023-03-14T14:42:46;7.60;87.40
40516;DHT22;26216;53.724;9.898;2023-03-14T14:45:20;7.60;86.50
40516;DHT22;26216;53.724;9.898;2023-03-14T14:48:05;7.70;82.20
40516;DHT22;26216;53.724;9.898;2023-03-14T14:50:36;7.70;84.70
40516;DHT22;26216;53.724;9.898;2023-03-14T14:53:19;7.60;78.70
40516;DHT22;26216;53.724;9.898;2023-03-14T14:55:48;7.40;78.30
40516;DHT22;26216;53.724;9.898;2023-03-14T14:58:18;7.40;80.30
40516;DHT22;26216;53.724;9.898;2023-03-14T15:01:04;7.40;80.50
40516;DHT22;26216;53.724;9.898;2023-03-14T15:03:32;7.30;81.80
40516;DHT22;26216;53.724;9.898;2023-03-14T15:05:59;7.20;84.10
40516;DHT22;26216;53.724;9.898;2023-03-14T15:08:26;7.30;85.10
40516;DHT22;26216;53.724;9.898;2023-03-14T15:10:54;7.40;85.50
40516;DHT22;26216;53.724;9.898;2023-03-14T15:13:20;7.40;86.10
40516;DHT22;26216;53.724;9.898;2023-03-14T15:15:46;7.50;87.50
40516;DHT22;26216;53.724;9.898;2023-03-14T15:18:15;7.50;88.30
40516;DHT22;26216;53.724;9.898;2023-03-14T15:20:43;7.50;88.00
40516;DHT22;26216;53.724;9.898;2023-03-14T15:23:14;7.50;89.40
40516;DHT22;26216;53.724;9.898;2023-03-14T15:25:41;7.50;87.60
40516;DHT22;26216;53.724;9.898;2023-03-14T15:28:24;7.50;89.40
40516;DHT22;26216;53.724;9.898;2023-03-14T15:30:53;7.50;88.10
40516;DHT22;26216;53.724;9.898;2023-03-14T15:33:20;7.60;89.50
40516;DHT22;26216;53.724;9.898;2023-03-14T15:35:46;7.70;90.10
40516;DHT22;26216;53.724;9.898;2023-03-14T15:38:18;7.70;88.20
40516;DHT22;26216;53.724;9.898;2023-03-14T15:40:52;7.70;88.70
40516;DHT22;26216;53.724;9.898;2023-03-14T15:43:18;7.70;85.00
40516;DHT22;26216;53.724;9.898;2023-03-14T15:45:44;7.70;82.80
40516;DHT22;26216;53.724;9.898;2023-03-14T15:48:19;7.60;82.50
40516;DHT22;26216;53.724;9.898;2023-03-14T15:50:46;7.50;82.30
40516;DHT22;26216;53.724;9.898;2023-03-14T15:53:13;7.40;83.20
40516;DHT22;26216;53.724;9.898;2023-03-14T15:55:39;7.40;83.60
40516;DHT22;26216;53.724;9.898;2023-03-14T15:58:05;7.30;84.40
40516;DHT22;26216;53.724;9.898;2023-03-14T16:00:31;7.20;84.80
40516;DHT22;26216;53.724;9.898;2023-03-14T16:02:57;7.10;86.20
40516;DHT22;26216;53.724;9.898;2023-03-14T16:05:23;7.20;88.20
40516;DHT22;26216;53.724;9.898;2023-03-14T16:07:49;7.20;88.00
40516;DHT22;26216;53.724;9.898;2023-03-14T16:10:16;7.30;88.40
40516;DHT22;26216;53.724;9.898;2023-03-14T16:12:42;7.20;88.10
40516;DHT22;26216;53.724;9.898;2023-03-14T16:15:09;7.30;88.10
40516;DHT22;26216;53.724;9.898;2023-03-14T16:17:35;7.30;87.30
40516;DHT22;26216;53.724;9.898;2023-03-14T16:20:04;7.20;86.30
40516;DHT22;26216;53.724;9.898;2023-03-14T16:22:30;7.20;87.30
40516;DHT22;26216;53.724;9.898;2023-03-14T16:25:02;7.20;88.50
40516;DHT22;26216;53.724;9.898;2023-03-14T16:27:28;7.20;88.20
40516;DHT22;26216;53.724;9.898;2023-03-14T16:29:55;7.20;87.90
40516;DHT22;26216;53.724;9.898;2023-03-14T16:32:21;7.10;89.00
40516;DHT22;26216;53.724;9.898;2023-03-14T16:34:47;7.20;88.50
40516;DHT22;26216;53.724;9.898;2023-03-14T16:37:13;7.10;89.30
40516;DHT22;26216;53.724;9.898;2023-03-14T16:39:39;7.10;89.70
40516;DHT22;26216;53.724;9.898;2023-03-14T16:42:05;7.00;88.00
40516;DHT22;26216;53.724;9.898;2023-03-14T16:44:31;7.00;88.80
40516;DHT22;26216;53.724;9.898;2023-03-14T16:46:57;7.00;89.50
40516;DHT22;26216;53.724;9.898;2023-03-14T16:49:23;7.00;88.60